Time;durP1;ratioP1;P1;durP2;ratioP2;P2;SDS_P1;SDS_P2;PMS_P1;PMS_P2;Temp;Humidity;BMP_temperature;BMP_pressure;BME280_temperature;BME280_humidity;BME280_pressure;Samples;Min_cycle;Max_cycle;Signal;HPM_P1;HPM_P2
2023/07/03 00:00:19;;;;;;;0.55;0.55;;;;;;;17.82;48.92;100541.88;5213128;28;20144;-84
2023/07/03 00:03:14;;;;;;;0.82;0.82;;;;;;;17.42;50.31;100541.63;5204469;28;20031;-85
2023/07/03 00:06:04;;;;;;;0.95;0.95;;;;;;;17.24;50.46;100541.75;5215159;28;20504;-84
2023/07/03 00:08:55;;;;;;;1.95;0.57;;;;;;;17.38;50.36;100535.63;5211994;28;20046;-83
2023/07/03 00:11:46;;;;;;;0.30;0.30;;;;;;;17.40;49.92;100540.84;5234241;28;20049;-86
2023/07/03 00:14:38;;;;;;;1.38;1.00;;;;;;;17.36;50.13;100531.38;5208414;28;20068;-86
2023/07/03 00:17:29;;;;;;;0.82;0.82;;;;;;;17.04;51.05;100531.44;5206160;28;20022;-85
2023/07/03 00:20:20;;;;;;;1.10;1.00;;;;;;;16.96;51.28;100535.41;5218960;28;20492;-86
2023/07/03 00:23:12;;;;;;;1.00;0.70;;;;;;;17.05;50.85;100535.81;5207973;28;20031;-87
2023/07/03 00:26:03;;;;;;;4.55;1.35;;;;;;;17.07;50.88;100532.13;5206317;28;20060;-87
2023/07/03 00:28:54;;;;;;;0.20;0.20;;;;;;;16.94;51.32;100534.63;5210138;28;20062;-87
2023/07/03 00:31:44;;;;;;;0.40;0.40;;;;;;;16.81;51.64;100525.63;5210270;28;20027;-87
2023/07/03 00:34:36;;;;;;;1.42;0.95;;;;;;;16.94;51.48;100529.31;5192696;28;20189;-87
2023/07/03 00:37:26;;;;;;;0.40;0.40;;;;;;;17.02;51.40;100538.63;5157148;28;20124;-87
2023/07/03 00:40:17;;;;;;;0.82;0.82;;;;;;;17.02;51.31;100533.31;5205396;28;20039;-87
2023/07/03 00:43:08;;;;;;;0.77;0.55;;;;;;;16.79;52.27;100532.81;5207131;28;20794;-87
2023/07/03 00:45:59;;;;;;;0.52;0.52;;;;;;;16.89;52.09;100526.06;5223352;28;20030;-87
2023/07/03 00:48:50;;;;;;;2.33;2.08;;;;;;;16.76;52.14;100528.53;5225577;28;20037;-87
2023/07/03 00:51:44;;;;;;;0.32;0.32;;;;;;;16.89;52.14;100523.41;5213517;28;20033;-87
2023/07/03 00:54:35;;;;;;;2.70;1.90;;;;;;;16.87;52.19;100524.41;5214574;28;20065;-87
2023/07/03 00:57:28;;;;;;;13.45;2.08;;;;;;;16.75;52.49;100531.25;5216511;28;20164;-86
2023/07/03 01:00:21;;;;;;;7.18;2.38;;;;;;;16.57;52.89;100522.53;5209752;28;20034;-87
2023/07/03 01:03:26;;;;;;;1.48;0.93;;;;;;;16.46;53.62;100525.78;5218075;28;20022;-87
2023/07/03 01:06:23;;;;;;;2.45;1.23;;;;;;;16.25;54.58;100518.06;5207303;28;20027;-86
2023/07/03 01:09:18;;;;;;;2.03;0.47;;;;;;;16.16;54.65;100513.28;5212119;28;20039;-86
2023/07/03 01:12:10;;;;;;;0.95;0.90;;;;;;;16.04;54.95;100520.06;5210039;28;20071;-86
2023/07/03 01:15:05;;;;;;;0.75;0.75;;;;;;;16.21;54.65;100524.47;5209876;28;20039;-86
2023/07/03 01:17:58;;;;;;;1.17;1.08;;;;;;;16.05;55.38;100522.66;5211199;28;20042;-86
2023/07/03 01:21:00;;;;;;;0.20;0.20;;;;;;;16.04;55.41;100525.38;5227241;28;20050;-86
2023/07/03 01:24:04;;;;;;;2.33;1.25;;;;;;;15.98;55.75;100523.06;5211542;28;20034;-87
2023/07/03 01:26:55;;;;;;;0.50;0.50;;;;;;;15.91;56.19;100524.31;5155805;28;20167;-87
2023/07/03 01:29:50;;;;;;;0.20;0.20;;;;;;;16.21;54.69;100519.19;5198396;28;20030;-87
2023/07/03 01:32:43;;;;;;;0.82;0.82;;;;;;;15.99;56.07;100520.31;5219813;28;20035;-87
2023/07/03 01:35:34;;;;;;;0.45;0.45;;;;;;;16.25;54.82;100517.22;5216455;28;20038;-86
2023/07/03 01:38:27;;;;;;;5.05;0.93;;;;;;;15.86;56.53;100511.34;5194141;28;20046;-86
2023/07/03 01:41:18;;;;;;;0.50;0.50;;;;;;;16.01;55.89;100513.16;5200613;28;20058;-86
2023/07/03 01:44:09;;;;;;;0.40;0.40;;;;;;;16.08;55.41;100507.53;5205369;28;20095;-86
2023/07/03 01:47:06;;;;;;;0.73;0.73;;;;;;;16.02;56.10;100506.09;5213563;28;20023;-86
2023/07/03 01:49:57;;;;;;;6.15;1.73;;;;;;;16.10;55.71;100497.72;5206085;28;20034;-86
2023/07/03 01:52:55;;;;;;;0.50;0.50;;;;;;;16.19;55.64;100500.75;5222397;28;20485;-86
2023/07/03 01:56:11;;;;;;;1.38;1.02;;;;;;;16.08;56.27;100499.59;5211726;28;20049;-86
2023/07/03 01:59:14;;;;;;;0.32;0.32;;;;;;;15.99;56.87;100493.00;5205981;28;20463;-86
2023/07/03 02:02:11;;;;;;;4.07;1.17;;;;;;;15.87;57.14;100492.72;5212052;28;20451;-86
2023/07/03 02:05:10;;;;;;;0.45;0.45;;;;;;;15.86;57.36;100493.69;5207715;28;20519;-86
2023/07/03 02:08:03;;;;;;;0.40;0.40;;;;;;;15.89;57.26;100492.66;5207481;28;20035;-86
2023/07/03 02:10:54;;;;;;;0.30;0.30;;;;;;;15.83;57.32;100496.47;5217060;28;20049;-86
2023/07/03 02:13:45;;;;;;;5.38;1.10;;;;;;;15.93;57.44;100499.47;5206781;28;20042;-87
2023/07/03 02:16:36;;;;;;;0.80;0.80;;;;;;;15.97;56.99;100498.41;5205258;28;20446;-86
2023/07/03 02:19:31;;;;;;;6.60;1.20;;;;;;;16.00;57.00;100497.38;5214781;28;20606;-87
2023/07/03 02:22:22;;;;;;;1.85;1.08;;;;;;;15.84;58.20;100498.19;5205087;28;20034;-86
2023/07/03 02:25:13;;;;;;;0.75;0.75;;;;;;;15.64;58.51;100504.50;5204503;28;20099;-85
2023/07/03 02:28:04;;;;;;;0.50;0.50;;;;;;;15.69;58.79;100494.53;5206625;28;20615;-87
2023/07/03 02:30:55;;;;;;;0.38;0.35;;;;;;;15.76;58.56;100495.06;5216794;28;20515;-86
2023/07/03 02:33:46;;;;;;;1.23;1.13;;;;;;;15.87;58.29;100494.53;5212054;28;20449;-86
2023/07/03 02:36:38;;;;;;;5.45;0.95;;;;;;;15.80;58.78;100485.19;5178018;28;20029;-86
2023/07/03 02:39:29;;;;;;;2.88;1.33;;;;;;;15.70;59.30;100495.41;5204420;28;20377;-85
2023/07/03 02:42:20;;;;;;;1.95;1.70;;;;;;;15.77;58.80;100493.25;5209634;28;20038;-86
2023/07/03 02:45:10;;;;;;;0.93;0.93;;;;;;;15.77;58.70;100506.50;5219275;28;20038;-87
2023/07/03 02:48:01;;;;;;;0.40;0.40;;;;;;;15.84;58.56;100492.91;5200216;28;20439;-87
2023/07/03 02:50:52;;;;;;;15.70;1.75;;;;;;;15.72;59.31;100494.38;5207382;28;20050;-87
2023/07/03 02:53:44;;;;;;;3.70;1.10;;;;;;;15.52;60.00;100495.41;5209698;28;20114;-87
2023/07/03 02:56:34;;;;;;;1.30;1.20;;;;;;;15.64;59.95;100490.41;5217819;28;20038;-87
2023/07/03 02:59:25;;;;;;;2.42;1.40;;;;;;;15.57;60.37;100488.09;5209458;28;20046;-87
2023/07/03 03:02:16;;;;;;;2.45;1.15;;;;;;;15.48;60.74;100493.84;5202433;28;20030;-87
2023/07/03 03:05:07;;;;;;;1.88;1.00;;;;;;;15.46;61.02;100486.94;5210280;28;20039;-87
2023/07/03 03:07:58;;;;;;;1.08;1.05;;;;;;;15.42;61.43;100487.06;5207673;28;20393;-87
2023/07/03 03:10:51;;;;;;;1.25;1.15;;;;;;;15.54;61.01;100492.69;5218236;28;20054;-87
2023/07/03 03:13:41;;;;;;;2.33;0.85;;;;;;;15.56;61.38;100491.66;5202418;28;20134;-87
2023/07/03 03:16:33;;;;;;;1.13;0.85;;;;;;;15.65;60.66;100485.06;5220008;28;20038;-88
2023/07/03 03:19:24;;;;;;;0.30;0.30;;;;;;;15.53;61.39;100475.09;5206454;28;20468;-86
2023/07/03 03:22:15;;;;;;;0.47;0.47;;;;;;;15.49;61.93;100481.50;5208837;28;20066;-87
2023/07/03 03:25:06;;;;;;;4.30;1.40;;;;;;;15.54;61.79;100474.16;5202357;28;20039;-87
2023/07/03 03:27:57;;;;;;;0.30;0.30;;;;;;;15.60;61.66;100473.00;5205126;28;20581;-87
2023/07/03 03:30:48;;;;;;;0.57;0.57;;;;;;;15.42;62.78;100471.22;5204065;28;20087;-86
2023/07/03 03:33:39;;;;;;;1.45;1.10;;;;;;;15.66;61.19;100468.22;5211215;28;20119;-87
2023/07/03 03:36:32;;;;;;;0.63;0.63;;;;;;;15.48;62.66;100475.34;5199768;28;20315;-87
2023/07/03 03:39:23;;;;;;;;;;;;;;;15.33;63.41;100478.75;5210381;28;20026;-87
2023/07/03 03:42:14;;;;;;;0.50;0.50;;;;;;;15.63;61.34;100473.69;5210745;28;19951;-87
2023/07/03 03:45:05;;;;;;;0.65;0.60;;;;;;;15.52;62.86;100473.38;5210984;28;20039;-86
2023/07/03 03:47:56;;;;;;;1.02;1.00;;;;;;;15.50;62.82;100477.88;5224845;28;20027;-87
2023/07/03 03:50:47;;;;;;;0.65;0.65;;;;;;;15.62;62.62;100471.13;5206754;28;20489;-86
2023/07/03 03:53:39;;;;;;;2.65;1.95;;;;;;;15.56;62.99;100472.31;5206239;28;20151;-87
2023/07/03 03:56:30;;;;;;;0.40;0.40;;;;;;;15.41;63.91;100469.50;5207323;28;20109;-86
2023/07/03 03:59:21;;;;;;;0.52;0.52;;;;;;;15.41;63.81;100474.78;5207082;28;20030;-86
2023/07/03 04:02:12;;;;;;;0.60;0.60;;;;;;;15.38;64.69;100479.38;5220319;28;20483;-83
2023/07/03 04:05:03;;;;;;;1.33;1.30;;;;;;;15.42;64.23;100476.50;5216999;28;20042;-83
2023/07/03 04:07:54;;;;;;;0.50;0.50;;;;;;;15.48;63.64;100469.19;5221341;28;20022;-83
2023/07/03 04:10:44;;;;;;;3.83;1.95;;;;;;;15.44;64.55;100473.78;5209325;28;20053;-84
2023/07/03 04:13:35;;;;;;;0.70;0.70;;;;;;;15.54;63.18;100472.38;5201912;28;20300;-83
2023/07/03 04:16:29;;;;;;;0.47;0.47;;;;;;;15.49;64.38;100477.03;5202677;28;20056;-83
2023/07/03 04:19:23;;;;;;;3.45;2.35;;;;;;;15.66;63.85;100472.66;5197074;28;20463;-82
2023/07/03 04:22:13;;;;;;;0.25;0.25;;;;;;;15.54;64.93;100479.44;5217445;28;20026;-81
2023/07/03 04:25:05;;;;;;;1.50;1.05;;;;;;;15.51;65.19;100472.53;5164601;28;20038;-81
2023/07/03 04:27:55;;;;;;;0.88;0.82;;;;;;;15.59;65.18;100477.41;5238671;28;20253;-80
2023/07/03 04:30:47;;;;;;;0.75;0.75;;;;;;;15.55;65.21;100470.59;5167012;28;20034;-79
2023/07/03 04:33:38;;;;;;;0.50;0.50;;;;;;;15.34;66.64;100481.31;5236124;28;20056;-79
2023/07/03 04:36:29;;;;;;;0.73;0.73;;;;;;;15.47;66.30;100478.06;5235884;28;20030;-80
2023/07/03 04:39:20;;;;;;;1.05;1.05;;;;;;;15.65;64.37;100482.41;5231222;28;20149;-79
2023/07/03 04:42:13;;;;;;;1.13;0.80;;;;;;;15.46;66.31;100481.63;5231767;28;20034;-82
2023/07/03 04:45:07;;;;;;;17.27;1.75;;;;;;;15.38;66.95;100479.38;5237481;28;20087;-83
2023/07/03 04:47:58;;;;;;;1.13;0.68;;;;;;;15.24;67.53;100483.59;5239867;28;20038;-85
2023/07/03 04:50:49;;;;;;;0.68;0.68;;;;;;;15.41;66.93;100484.50;5212753;28;20060;-86
2023/07/03 04:53:41;;;;;;;2.35;1.10;;;;;;;15.53;66.25;100475.97;5213485;28;20042;-86
2023/07/03 04:56:33;;;;;;;0.52;0.52;;;;;;;15.50;66.95;100485.81;5214686;28;20031;-87
2023/07/03 04:59:24;;;;;;;1.25;1.15;;;;;;;15.68;65.98;100491.97;5223723;28;20290;-85
2023/07/03 05:02:18;;;;;;;0.90;0.82;;;;;;;15.46;67.29;100497.50;5208965;28;20342;-85
2023/07/03 05:05:12;;;;;;;0.68;0.68;;;;;;;15.57;66.87;100500.47;5205801;28;20038;-85
2023/07/03 05:08:03;;;;;;;3.83;1.40;;;;;;;15.41;67.67;100495.94;5210085;28;20039;-86
2023/07/03 05:10:54;;;;;;;10.52;2.47;;;;;;;15.42;68.03;100497.66;5206628;28;20039;-85
2023/07/03 05:13:45;;;;;;;1.50;1.00;;;;;;;15.48;67.71;100503.56;5210708;28;20442;-85
2023/07/03 05:16:36;;;;;;;1.13;0.80;;;;;;;15.53;67.54;100493.59;5213271;28;20032;-86
2023/07/03 05:19:28;;;;;;;2.22;1.30;;;;;;;15.43;68.06;100503.81;5211939;28;20064;-87
2023/07/03 05:22:18;;;;;;;0.50;0.50;;;;;;;15.47;68.04;100512.44;5226176;28;20030;-86
2023/07/03 05:25:11;;;;;;;1.25;1.15;;;;;;;15.48;67.99;100504.41;5224638;28;20030;-86
2023/07/03 05:28:03;;;;;;;0.85;0.85;;;;;;;15.58;68.00;100510.06;5217930;28;20026;-86
2023/07/03 05:30:55;;;;;;;0.32;0.32;;;;;;;15.63;67.28;100509.84;5231442;28;20098;-84
2023/07/03 05:33:46;;;;;;;1.50;0.88;;;;;;;15.59;67.62;100514.44;5214912;28;20088;-85
2023/07/03 05:36:37;;;;;;;5.38;1.42;;;;;;;15.53;67.99;100514.75;5220079;28;20031;-86
2023/07/03 05:39:28;;;;;;;0.68;0.68;;;;;;;15.55;68.22;100518.19;5207604;28;20035;-85
2023/07/03 05:42:19;;;;;;;2.50;0.95;;;;;;;15.42;68.70;100518.78;5207300;28;20041;-84
2023/07/03 05:45:10;;;;;;;0.98;0.73;;;;;;;15.48;68.27;100530.00;5210097;28;20080;-85
2023/07/03 05:48:02;;;;;;;0.57;0.57;;;;;;;15.52;68.06;100528.91;5206572;28;20309;-84
2023/07/03 05:50:53;;;;;;;3.25;1.45;;;;;;;15.48;68.19;100522.91;5221088;28;20554;-85
2023/07/03 05:53:44;;;;;;;2.20;1.45;;;;;;;15.57;67.96;100527.75;5206551;28;20094;-85
2023/07/03 05:56:34;;;;;;;2.15;1.08;;;;;;;15.55;68.09;100523.47;5220781;28;20213;-84
2023/07/03 05:59:26;;;;;;;3.22;1.77;;;;;;;15.62;67.79;100530.16;5208458;28;20141;-86
2023/07/03 06:02:17;;;;;;;1.10;0.70;;;;;;;15.69;67.21;100528.91;5151953;28;20065;-85
2023/07/03 06:05:11;;;;;;;0.80;0.80;;;;;;;15.73;67.42;100533.13;5198590;28;20046;-85
2023/07/03 06:08:01;;;;;;;1.63;1.55;;;;;;;15.68;67.61;100526.34;5200310;28;20019;-85
2023/07/03 06:10:52;;;;;;;1.08;0.88;;;;;;;15.58;67.80;100534.75;5211568;28;20034;-85
2023/07/03 06:13:43;;;;;;;0.88;0.88;;;;;;;15.62;67.79;100539.91;5190111;23;20042;-78
2023/07/03 06:16:34;;;;;;;3.10;0.95;;;;;;;15.84;67.34;100537.00;5159071;28;20124;-78
2023/07/03 06:19:26;;;;;;;1.27;1.17;;;;;;;15.70;68.02;100527.97;5172726;28;20148;-78
2023/07/03 06:22:17;;;;;;;1.35;1.33;;;;;;;15.78;67.85;100529.38;5165789;28;20030;-78
2023/07/03 06:25:09;;;;;;;2.08;1.48;;;;;;;15.84;68.08;100535.22;5132815;28;20069;-78
2023/07/03 06:28:00;;;;;;;0.65;0.50;;;;;;;15.92;67.68;100534.81;5150672;28;20026;-79
2023/07/03 06:30:51;;;;;;;4.40;1.73;;;;;;;16.03;67.57;100545.69;5131798;28;20599;-79
2023/07/03 06:33:41;;;;;;;1.10;0.75;;;;;;;16.03;67.58;100536.91;5143063;28;20046;-78
2023/07/03 06:36:34;;;;;;;1.63;0.50;;;;;;;16.01;68.16;100531.69;5136772;28;20022;-78
2023/07/03 06:39:25;;;;;;;1.48;1.38;;;;;;;16.07;67.88;100541.09;5129771;28;20141;-78
2023/07/03 06:42:16;;;;;;;2.47;1.23;;;;;;;16.16;67.43;100542.38;5158545;28;20119;-78
2023/07/03 06:45:07;;;;;;;0.40;0.40;;;;;;;16.20;67.98;100542.13;5145098;28;20038;-78
2023/07/03 06:47:58;;;;;;;1.83;1.15;;;;;;;16.30;67.71;100541.66;5161070;28;20022;-79
2023/07/03 06:50:49;;;;;;;1.05;0.73;;;;;;;16.35;67.57;100537.81;5147985;28;20350;-78
2023/07/03 06:53:41;;;;;;;6.05;1.42;;;;;;;16.37;67.13;100548.31;5159708;28;20046;-79
2023/07/03 06:56:32;;;;;;;0.45;0.45;;;;;;;16.44;66.79;100557.66;5131855;28;20129;-79
2023/07/03 06:59:23;;;;;;;0.85;0.85;;;;;;;16.37;66.83;100543.03;5146818;28;20044;-79
2023/07/03 07:02:13;;;;;;;0.68;0.68;;;;;;;16.35;66.87;100550.22;5136706;28;20028;-80
2023/07/03 07:05:05;;;;;;;0.70;0.68;;;;;;;16.44;66.74;100554.16;5166796;28;20123;-79
2023/07/03 07:07:55;;;;;;;1.83;1.73;;;;;;;16.49;66.64;100542.38;5145698;28;20026;-79
2023/07/03 07:10:46;;;;;;;1.38;0.73;;;;;;;16.43;67.02;100548.00;5164941;28;20045;-80
2023/07/03 07:13:42;;;;;;;4.85;2.05;;;;;;;16.38;66.72;100546.53;5136127;28;20344;-78
2023/07/03 07:16:36;;;;;;;0.47;0.47;;;;;;;16.56;65.91;100545.53;5132673;28;20041;-78
2023/07/03 07:19:27;;;;;;;0.35;0.35;;;;;;;16.58;65.36;100546.28;5151055;28;20050;-79
2023/07/03 07:22:18;;;;;;;0.20;0.20;;;;;;;16.67;64.54;100544.94;5134866;28;20030;-78
2023/07/03 07:25:09;;;;;;;2.72;1.13;;;;;;;16.70;64.08;100539.47;5154186;28;20093;-79
2023/07/03 07:28:01;;;;;;;0.73;0.73;;;;;;;16.68;64.15;100541.38;5159231;28;20021;-79
2023/07/03 07:30:52;;;;;;;0.38;0.38;;;;;;;16.76;63.04;100543.56;5155777;28;20483;-79
2023/07/03 07:33:43;;;;;;;5.88;1.35;;;;;;;16.81;62.48;100544.19;5151423;28;20065;-79
2023/07/03 07:36:34;;;;;;;0.38;0.35;;;;;;;16.79;62.02;100546.06;5158302;28;20027;-78
2023/07/03 07:39:26;;;;;;;1.20;1.17;;;;;;;16.71;62.22;100546.47;5140745;28;20041;-79
2023/07/03 07:42:17;;;;;;;2.53;0.63;;;;;;;16.81;60.31;100546.84;5153168;28;20100;-79
2023/07/03 07:45:11;;;;;;;;;;;;;;;16.86;60.38;100546.56;5141113;28;20471;-80
2023/07/03 07:48:01;;;;;;;1.25;0.55;;;;;;;16.86;60.34;100541.28;5165346;28;19921;-77
2023/07/03 07:50:52;;;;;;;1.02;0.88;;;;;;;16.91;58.41;100541.84;5136260;28;20050;-78
2023/07/03 07:53:43;;;;;;;1.50;1.30;;;;;;;16.99;58.11;100560.88;5165614;28;20038;-79
2023/07/03 07:56:34;;;;;;;1.50;0.93;;;;;;;16.94;57.15;100563.78;5138155;28;20560;-78
2023/07/03 07:59:25;;;;;;;0.30;0.30;;;;;;;16.94;56.12;100553.16;5138007;28;20042;-79
2023/07/03 08:02:16;;;;;;;9.23;1.65;;;;;;;17.02;56.36;100554.53;5164952;28;20042;-78
2023/07/03 08:05:08;;;;;;;0.50;0.50;;;;;;;17.10;56.59;100552.28;5134252;28;20398;-78
2023/07/03 08:07:59;;;;;;;3.42;2.17;;;;;;;17.15;55.92;100550.22;5153712;28;20118;-78
2023/07/03 08:10:54;;;;;;;0.22;0.22;;;;;;;17.12;54.22;100547.75;5154490;28;20312;-78
2023/07/03 08:13:45;;;;;;;1.30;0.57;;;;;;;17.26;54.43;100560.22;5164679;28;20117;-78
2023/07/03 08:16:35;;;;;;;1.00;1.00;;;;;;;17.31;54.12;100561.66;5169038;28;20034;-79
2023/07/03 08:19:26;;;;;;;0.40;0.40;;;;;;;17.38;54.59;100556.00;5149832;28;20046;-78
2023/07/03 08:22:17;;;;;;;0.50;0.50;;;;;;;17.47;54.48;100550.16;5136284;28;20022;-78
2023/07/03 08:25:10;;;;;;;0.95;0.95;;;;;;;17.53;53.02;100544.50;5156781;28;20038;-78
2023/07/03 08:28:01;;;;;;;0.75;0.75;;;;;;;17.66;52.19;100555.25;5169377;28;20054;-78
2023/07/03 08:30:51;;;;;;;0.47;0.47;;;;;;;17.69;51.60;100556.84;5149127;28;20069;-78
2023/07/03 08:33:42;;;;;;;1.30;0.70;;;;;;;17.67;50.34;100556.06;5163446;28;20046;-78
2023/07/03 08:36:33;;;;;;;3.20;1.10;;;;;;;17.62;50.38;100559.00;5168513;28;20052;-79
2023/07/03 08:39:24;;;;;;;1.63;1.52;;;;;;;17.69;48.77;100559.50;5137094;28;20719;-78
2023/07/03 08:42:26;;;;;;;0.30;0.30;;;;;;;17.72;50.08;100569.94;5137694;28;20033;-78
2023/07/03 08:45:18;;;;;;;4.90;1.83;;;;;;;17.89;49.56;100577.72;5140990;28;20356;-78
2023/07/03 08:48:22;;;;;;;1.38;1.25;;;;;;;17.91;49.39;100567.88;5135014;28;20042;-78
2023/07/03 08:51:18;;;;;;;7.60;1.52;;;;;;;18.06;49.65;100586.50;5147955;28;20023;-78
2023/07/03 08:54:17;;;;;;;1.45;1.35;;;;;;;18.08;49.63;100587.25;5164527;28;20521;-78
2023/07/03 08:57:11;;;;;;;0.63;0.63;;;;;;;18.08;49.51;100596.09;5154483;28;20112;-78
2023/07/03 09:00:05;;;;;;;13.13;2.58;;;;;;;18.12;49.42;100587.94;5147639;28;20117;-77
2023/07/03 09:03:11;;;;;;;1.35;1.20;;;;;;;18.10;48.93;100590.69;5141812;28;20120;-79
2023/07/03 09:06:05;;;;;;;2.00;1.35;;;;;;;18.12;48.92;100599.41;5148777;28;20054;-78
2023/07/03 09:09:11;;;;;;;;;;;;;;;18.19;49.28;100595.44;5153974;28;20149;-78
2023/07/03 09:12:13;;;;;;;1.23;1.23;;;;;;;18.21;49.73;100596.22;5137969;28;20408;-78
2023/07/03 09:15:17;;;;;;;2.20;1.23;;;;;;;18.31;50.42;100604.47;5168290;28;20042;-79
2023/07/03 09:18:17;;;;;;;1.85;1.15;;;;;;;18.30;50.64;100607.22;5169542;28;20033;-78
2023/07/03 09:21:08;;;;;;;6.57;2.42;;;;;;;18.38;49.77;100610.25;5138389;28;20635;-78
2023/07/03 09:24:17;;;;;;;0.45;0.45;;;;;;;18.32;48.46;100610.59;5137976;28;20129;-78
2023/07/03 09:27:19;;;;;;;8.77;1.35;;;;;;;18.25;47.49;100607.50;5134342;28;20089;-78
2023/07/03 09:30:14;;;;;;;2.05;0.98;;;;;;;18.35;47.57;100611.28;5151861;28;20574;-78
2023/07/03 09:33:09;;;;;;;1.85;1.55;;;;;;;18.42;46.42;100617.06;5128473;28;20061;-78
2023/07/03 09:36:03;;;;;;;12.45;0.68;;;;;;;18.47;47.20;100614.97;5150400;28;20722;-78
2023/07/03 09:38:54;;;;;;;0.32;0.32;;;;;;;18.54;47.13;100616.31;5133762;28;20089;-78
2023/07/03 09:41:45;;;;;;;3.30;0.75;;;;;;;18.58;45.83;100610.78;5151200;28;20535;-78
2023/07/03 09:44:40;;;;;;;0.40;0.40;;;;;;;18.46;45.41;100617.72;5133144;28;20574;-78
2023/07/03 09:47:31;;;;;;;8.80;2.53;;;;;;;18.44;45.50;100620.50;5147987;28;20065;-78
2023/07/03 09:50:43;;;;;;;10.13;1.48;;;;;;;18.49;45.43;100620.22;5132939;28;20034;-78
2023/07/03 09:53:39;;;;;;;0.43;0.43;;;;;;;18.45;45.65;100626.63;5144460;28;20038;-78
2023/07/03 09:56:30;;;;;;;0.30;0.30;;;;;;;18.43;46.22;100640.03;5132323;28;20117;-78
2023/07/03 09:59:24;;;;;;;0.52;0.52;;;;;;;18.37;46.60;100641.25;5145391;28;20046;-79
2023/07/03 10:02:14;;;;;;;0.43;0.43;;;;;;;18.08;46.76;100643.03;5162734;28;20061;-78
2023/07/03 10:05:06;;;;;;;0.80;0.40;;;;;;;18.11;47.55;100645.50;5144371;28;20065;-78
2023/07/03 10:08:01;;;;;;;0.40;0.40;;;;;;;18.31;47.64;100646.94;5162479;28;20022;-78
2023/07/03 10:10:56;;;;;;;2.13;1.15;;;;;;;18.09;48.85;100664.19;5135315;28;20481;-78
2023/07/03 10:13:51;;;;;;;0.57;0.40;;;;;;;18.08;49.42;100648.31;5132787;28;20252;-79
2023/07/03 10:16:43;;;;;;;17.63;2.50;;;;;;;18.19;49.39;100648.56;5145608;28;20030;-78
2023/07/03 10:19:34;;;;;;;0.93;0.85;;;;;;;18.38;49.17;100648.28;5166124;28;20030;-79
2023/07/03 10:22:26;;;;;;;0.77;0.77;;;;;;;18.44;49.86;100647.06;5148580;28;20031;-79
2023/07/03 10:25:36;;;;;;;4.25;1.33;;;;;;;18.32;49.25;100637.16;5167390;28;20043;-79
2023/07/03 10:28:33;;;;;;;0.20;0.20;;;;;;;18.44;49.78;100639.09;5151984;28;20469;-77
2023/07/03 10:31:38;;;;;;;0.40;0.40;;;;;;;18.64;49.90;100643.16;5143597;28;20031;-77
2023/07/03 10:34:37;;;;;;;3.85;2.60;;;;;;;18.71;49.83;100633.00;5145809;28;20046;-78
2023/07/03 10:37:37;;;;;;;1.02;1.02;;;;;;;18.79;49.73;100632.50;5163540;28;20242;-79
2023/07/03 10:40:38;;;;;;;1.38;1.38;;;;;;;18.86;49.31;100629.38;5139621;28;20072;-78
2023/07/03 10:43:35;;;;;;;1.35;1.27;;;;;;;18.82;49.74;100625.19;5159774;28;20042;-79
2023/07/03 10:46:50;;;;;;;0.50;0.50;;;;;;;18.86;50.12;100629.38;5133977;28;20175;-79
2023/07/03 10:49:40;;;;;;;0.95;0.95;;;;;;;18.97;50.55;100628.72;5140631;28;20133;-79
2023/07/03 10:52:56;;;;;;;1.40;1.30;;;;;;;18.91;50.29;100623.78;5162293;28;20474;-78
2023/07/03 10:56:32;;;;;;;0.57;0.57;;;;;;;18.90;50.71;100627.38;5128182;28;20298;-79
2023/07/03 10:59:36;;;;;;;0.90;0.57;;;;;;;18.96;51.33;100626.19;5123719;28;20402;-78
2023/07/03 11:02:53;;;;;;;0.30;0.30;;;;;;;19.14;50.58;100624.13;5108118;28;20050;-78
2023/07/03 11:05:54;;;;;;;0.60;0.60;;;;;;;19.24;50.48;100621.72;5146046;28;20042;-79
2023/07/03 11:08:57;;;;;;;3.70;1.73;;;;;;;19.23;50.27;100612.03;5148220;28;20412;-79
2023/07/03 11:12:06;;;;;;;1.27;0.82;;;;;;;19.28;50.19;100615.25;5151883;28;20034;-79
2023/07/03 11:15:21;;;;;;;4.57;1.35;;;;;;;19.47;50.81;100614.88;5161225;28;20042;-79
2023/07/03 11:19:07;;;;;;;1.95;0.90;;;;;;;19.58;50.56;100606.19;5146187;28;20030;-79
2023/07/03 11:22:24;;;;;;;5.78;0.88;;;;;;;19.56;48.70;100614.28;5113979;28;20083;-79
2023/07/03 11:25:36;;;;;;;1.05;0.95;;;;;;;19.64;49.06;100619.06;5143619;28;20038;-79
2023/07/03 11:28:26;;;;;;;1.95;0.60;;;;;;;19.85;48.27;100607.97;5128553;28;20401;-79
2023/07/03 11:31:18;;;;;;;0.38;0.38;;;;;;;19.97;49.00;100600.00;5140240;28;20026;-77
2023/07/03 11:34:13;;;;;;;1.40;1.30;;;;;;;20.16;48.22;100595.22;5146960;28;20034;-79
2023/07/03 11:37:47;;;;;;;1.55;0.60;;;;;;;20.13;47.47;100594.47;5158948;28;20034;-78
2023/07/03 11:41:02;;;;;;;0.30;0.30;;;;;;;20.16;47.33;100584.56;5091206;28;20128;-79
2023/07/03 11:43:53;;;;;;;0.38;0.38;;;;;;;20.24;47.48;100587.53;5100329;28;20365;-78
2023/07/03 11:46:43;;;;;;;0.40;0.40;;;;;;;20.27;45.03;100582.84;5163478;28;20480;-77
2023/07/03 11:49:37;;;;;;;1.15;1.08;;;;;;;20.33;43.94;100584.22;5147135;28;20324;-78
2023/07/03 11:52:34;;;;;;;0.95;0.90;;;;;;;20.44;41.72;100567.47;5146167;28;20077;-77
2023/07/03 11:55:37;;;;;;;0.68;0.57;;;;;;;20.38;41.94;100576.75;5165561;28;20058;-78
2023/07/03 11:58:30;;;;;;;2.92;0.77;;;;;;;20.38;41.76;100576.75;5147480;28;20928;-78
2023/07/03 12:01:26;;;;;;;1.05;0.75;;;;;;;20.53;42.45;100581.97;5151522;28;20085;-78
2023/07/03 12:04:48;;;;;;;0.80;0.80;;;;;;;20.70;42.35;100576.25;5150113;28;20049;-78
2023/07/03 12:07:38;;;;;;;0.93;0.93;;;;;;;20.78;41.53;100588.25;5155374;28;20392;-77
2023/07/03 12:10:29;;;;;;;2.03;0.90;;;;;;;20.92;42.31;100582.75;5150846;28;20042;-77
2023/07/03 12:13:41;;;;;;;0.82;0.82;;;;;;;20.93;42.41;100579.13;5131989;28;20400;-78
2023/07/03 12:16:34;;;;;;;1.13;1.02;;;;;;;20.97;43.06;100579.75;5139730;28;20153;-77
2023/07/03 12:19:30;;;;;;;2.55;1.85;;;;;;;21.00;42.93;100584.84;5170651;28;20069;-77
2023/07/03 12:22:27;;;;;;;2.50;0.73;;;;;;;20.87;43.23;100579.53;5133430;28;20030;-77
2023/07/03 12:25:27;;;;;;;1.30;1.20;;;;;;;21.05;42.97;100583.53;5133117;28;20034;-77
2023/07/03 12:28:18;;;;;;;3.47;1.48;;;;;;;21.02;42.50;100573.13;5149351;28;20503;-77
2023/07/03 12:31:09;;;;;;;2.20;0.85;;;;;;;21.17;41.98;100584.44;5150885;28;20053;-77
2023/07/03 12:34:00;;;;;;;0.77;0.68;;;;;;;21.18;41.92;100571.97;5146410;28;20045;-78
2023/07/03 12:36:51;;;;;;;0.65;0.65;;;;;;;21.07;41.64;100576.28;5140226;28;20465;-79
2023/07/03 12:43:48;;;;;;;1.05;1.05;;;;;;;21.37;39.70;100574.94;5060102;29;20048;-78
2023/07/03 12:47:59;;;;;;;;;;;;;;;;;;;;;
2023/07/03 12:51:27;;;;;;;;;;;;;;;;;;;;;
2023/07/03 12:54:04;;;;;;;2.42;0.75;;;;;;;21.63;37.92;100557.97;5263211;23;20087;-87
2023/07/03 12:56:56;;;;;;;1.48;1.05;;;;;;;21.87;37.69;100579.25;5204375;28;20134;-87
2023/07/03 12:59:50;;;;;;;0.88;0.88;;;;;;;22.01;36.93;100563.03;5193903;28;20100;-86
2023/07/03 13:02:42;;;;;;;0.40;0.40;;;;;;;21.90;37.14;100557.66;5197138;28;20420;-89
2023/07/03 13:05:35;;;;;;;0.52;0.50;;;;;;;22.09;38.07;100556.22;5198062;28;20053;-88
2023/07/03 13:08:26;;;;;;;0.60;0.60;;;;;;;22.24;37.56;100568.38;5217732;28;20200;-87
2023/07/03 13:11:43;;;;;;;0.35;0.35;;;;;;;22.13;38.27;100557.69;5231701;28;20036;-87
2023/07/03 13:14:34;;;;;;;1.05;1.00;;;;;;;22.28;38.77;100572.50;5228830;28;20049;-86
2023/07/03 13:17:30;;;;;;;0.68;0.68;;;;;;;22.40;37.87;100556.50;5224274;28;20032;-87
2023/07/03 13:20:26;;;;;;;13.77;1.45;;;;;;;22.22;38.38;100567.66;5236169;28;20032;-89
2023/07/03 13:23:17;;;;;;;1.08;0.90;;;;;;;21.87;38.36;100568.56;5231633;28;20111;-85
2023/07/03 13:26:12;;;;;;;0.40;0.40;;;;;;;21.77;38.39;100560.44;5228129;28;20046;-87
2023/07/03 13:29:05;;;;;;;1.00;0.90;;;;;;;21.74;38.87;100555.31;5224914;28;20041;-86
2023/07/03 13:32:16;;;;;;;0.50;0.50;;;;;;;21.95;37.90;100551.97;5230961;28;20060;-87
2023/07/03 13:35:07;;;;;;;0.50;0.50;;;;;;;22.21;37.41;100554.41;5231354;28;20041;-84
2023/07/03 13:38:29;;;;;;;1.15;0.55;;;;;;;22.44;37.20;100552.59;5213428;28;20104;-84
2023/07/03 13:41:20;;;;;;;0.77;0.60;;;;;;;22.33;37.34;100564.13;5204790;28;20348;-86